Time;durP1;ratioP1;P1;durP2;ratioP2;P2;SDS_P1;SDS_P2;PMS_P1;PMS_P2;Temp;Humidity;BMP_temperature;BMP_pressure;BME280_temperature;BME280_humidity;BME280_pressure;Samples;Min_cycle;Max_cycle;Signal;HPM_P1;HPM_P2
2023/05/22 00:00:54;;;;;;;10.20;7.55;;;;;;;16.57;100.00;99472.09;5070733;28;20028;-69
2023/05/22 00:03:23;;;;;;;13.45;7.43;;;;;;;16.29;100.00;99385.66;5053155;28;20033;-69
2023/05/22 00:05:49;;;;;;;12.00;7.28;;;;;;;16.21;100.00;99348.56;5071043;28;20072;-69
2023/05/22 00:08:14;;;;;;;13.02;7.50;;;;;;;16.45;100.00;99350.47;5071266;28;20475;-69
2023/05/22 00:10:41;;;;;;;9.90;7.72;;;;;;;16.38;100.00;99273.97;5070695;28;20024;-69
2023/05/22 00:13:06;;;;;;;12.85;8.55;;;;;;;16.15;100.00;99247.19;5070932;28;20029;-70
2023/05/22 00:15:32;;;;;;;12.73;8.27;;;;;;;16.40;100.00;99277.25;5070858;28;20039;-69
2023/05/22 00:17:58;;;;;;;12.05;7.88;;;;;;;16.47;100.00;99235.72;5070996;28;20498;-69
2023/05/22 00:20:25;;;;;;;12.55;7.90;;;;;;;16.86;100.00;99278.53;5070527;28;20020;-70
2023/05/22 00:22:50;;;;;;;9.40;7.15;;;;;;;16.53;100.00;99219.13;5052882;28;20056;-69
2023/05/22 00:25:18;;;;;;;11.52;7.45;;;;;;;16.39;100.00;99224.28;5070806;28;20464;-69
2023/05/22 00:27:43;;;;;;;10.88;6.47;;;;;;;17.04;100.00;99281.66;5069140;28;20144;-69
2023/05/22 00:30:09;;;;;;;15.00;7.00;;;;;;;16.87;100.00;99287.91;5070232;28;20530;-69
2023/05/22 00:32:35;;;;;;;8.98;5.93;;;;;;;16.44;100.00;99241.03;5070493;28;20036;-69
2023/05/22 00:35:00;;;;;;;8.75;5.63;;;;;;;16.89;100.00;99306.59;5070218;28;20026;-69
2023/05/22 00:37:26;;;;;;;10.77;5.18;;;;;;;16.74;100.00;99253.66;5052520;28;20036;-70
2023/05/22 00:39:51;;;;;;;10.80;4.35;;;;;;;17.48;100.00;99336.09;5070641;28;20086;-69
2023/05/22 00:42:17;;;;;;;8.00;3.90;;;;;;;17.33;100.00;99319.13;5070680;28;20035;-69
2023/05/22 00:44:42;;;;;;;5.82;3.83;;;;;;;17.26;100.00;99320.44;5070130;28;20097;-69
2023/05/22 00:47:08;;;;;;;8.55;3.95;;;;;;;17.61;100.00;99400.41;5070483;28;20029;-69
2023/05/22 00:49:33;;;;;;;7.30;4.10;;;;;;;17.83;100.00;99499.16;5052592;28;20544;-69
2023/05/22 00:52:00;;;;;;;7.13;3.72;;;;;;;17.77;100.00;99550.16;5070113;28;20035;-69
2023/05/22 00:54:26;;;;;;;9.70;4.05;;;;;;;17.22;100.00;99538.22;5068871;28;20055;-69
2023/05/22 00:57:00;;;;;;;7.53;4.00;;;;;;;17.33;100.00;99632.63;5052569;28;20112;-69
2023/05/22 00:59:26;;;;;;;9.18;5.30;;;;;;;16.93;100.00;99654.75;5070429;28;20082;-68
2023/05/22 01:01:51;;;;;;;8.13;5.05;;;;;;;16.69;100.00;99642.50;5070377;28;20032;-69
2023/05/22 01:04:17;;;;;;;9.48;5.78;;;;;;;16.27;100.00;99579.91;5069983;28;20055;-70
2023/05/22 01:06:46;;;;;;;7.90;5.80;;;;;;;16.58;100.00;99622.59;5070117;28;20135;-70
2023/05/22 01:09:16;;;;;;;10.95;6.20;;;;;;;16.47;100.00;99623.19;5070599;28;20028;-70
2023/05/22 01:12:00;;;;;;;10.20;6.03;;;;;;;16.23;100.00;99563.03;5068760;28;20032;-69
2023/05/22 01:14:54;;;;;;;10.30;5.70;;;;;;;16.45;100.00;99603.66;5052024;28;20032;-69
2023/05/22 01:17:27;;;;;;;9.25;5.53;;;;;;;16.06;100.00;99545.22;5070328;28;20035;-70
2023/05/22 01:20:13;;;;;;;9.23;5.35;;;;;;;16.39;100.00;99609.16;5070420;28;20025;-69
2023/05/22 01:22:57;;;;;;;9.43;5.45;;;;;;;16.36;100.00;99606.78;5070824;28;20033;-69
2023/05/22 01:25:28;;;;;;;10.40;5.47;;;;;;;16.68;100.00;99621.13;5074364;28;20116;-68
2023/05/22 01:28:28;;;;;;;11.98;5.30;;;;;;;16.74;100.00;99645.66;5074331;28;20039;-69
2023/05/22 01:31:10;;;;;;;10.77;4.70;;;;;;;16.57;100.00;99658.63;5073719;28;20032;-70
2023/05/22 01:33:47;;;;;;;8.18;4.68;;;;;;;16.07;100.00;99603.28;5074488;28;20032;-69
2023/05/22 01:36:21;;;;;;;6.50;4.50;;;;;;;16.01;100.00;99593.38;5074039;28;20051;-70
2023/05/22 01:38:48;;;;;;;7.97;4.32;;;;;;;15.95;100.00;99632.19;5073758;28;20082;-69
2023/05/22 01:41:15;;;;;;;7.40;5.13;;;;;;;16.00;100.00;99639.63;5074241;28;20086;-69
2023/05/22 01:43:41;;;;;;;9.70;4.82;;;;;;;16.32;100.00;99662.53;5073482;28;20028;-69
2023/05/22 01:46:06;;;;;;;11.00;5.32;;;;;;;16.29;100.00;99662.72;5073213;28;20044;-69
2023/05/22 01:48:32;;;;;;;10.48;5.05;;;;;;;16.09;100.00;99657.06;5073564;28;20032;-69
2023/05/22 01:51:08;;;;;;;8.45;5.10;;;;;;;16.26;100.00;99644.13;5073553;28;20119;-70
2023/05/22 01:53:38;;;;;;;8.23;5.40;;;;;;;15.63;100.00;99591.28;5055757;28;20039;-69
2023/05/22 01:56:13;;;;;;;11.23;6.10;;;;;;;15.92;100.00;99621.28;5073406;28;20063;-69
2023/05/22 01:58:48;;;;;;;8.73;6.15;;;;;;;15.55;100.00;99558.38;5051388;28;20036;-70
2023/05/22 02:01:15;;;;;;;9.90;6.45;;;;;;;15.72;100.00;99553.16;5073263;28;20454;-69
2023/05/22 02:03:41;;;;;;;10.40;6.18;;;;;;;15.85;100.00;99546.44;5055059;28;20055;-75
2023/05/22 02:06:11;;;;;;;10.70;6.25;;;;;;;15.49;100.00;99523.69;5073234;28;20487;-69
2023/05/22 02:08:39;;;;;;;7.75;5.90;;;;;;;15.71;100.00;99505.38;5073106;28;20032;-70
2023/05/22 02:11:06;;;;;;;8.57;6.13;;;;;;;15.41;100.00;99492.50;5055495;28;20479;-72
2023/05/22 02:13:32;;;;;;;9.52;5.90;;;;;;;15.50;100.00;99435.66;5073187;28;20036;-70
2023/05/22 02:15:58;;;;;;;9.75;6.05;;;;;;;15.89;100.00;99490.66;5072998;28;20119;-69
2023/05/22 02:18:30;;;;;;;10.90;6.20;;;;;;;15.97;100.00;99491.88;5073056;28;20042;-70
2023/05/22 02:20:59;;;;;;;13.85;6.63;;;;;;;15.57;100.00;99495.91;5054987;28;20024;-70
2023/05/22 02:23:28;;;;;;;12.48;5.97;;;;;;;15.51;100.00;99421.94;5072889;28;20090;-69
2023/05/22 02:25:54;;;;;;;9.30;6.13;;;;;;;15.60;100.00;99423.16;5072552;28;20483;-69
2023/05/22 02:28:20;;;;;;;10.00;6.38;;;;;;;15.38;100.00;99408.16;5055208;28;20490;-69
2023/05/22 02:30:45;;;;;;;12.50;5.97;;;;;;;15.59;100.00;99442.81;5072897;28;20040;-70
2023/05/22 02:33:10;;;;;;;9.27;5.70;;;;;;;15.57;100.00;99443.81;5071464;28;20095;-71
2023/05/22 02:35:36;;;;;;;8.05;5.85;;;;;;;15.75;100.00;99426.59;5072237;28;20495;-69
2023/05/22 02:38:02;;;;;;;10.05;6.10;;;;;;;16.03;100.00;99430.00;5072351;28;20078;-69
2023/05/22 02:40:27;;;;;;;7.07;5.55;;;;;;;15.89;100.00;99395.81;5072996;28;20035;-70
2023/05/22 02:42:53;;;;;;;8.77;5.70;;;;;;;15.90;100.00;99423.13;5072624;28;20112;-69
2023/05/22 02:45:18;;;;;;;9.90;5.55;;;;;;;16.11;100.00;99426.97;5072306;28;20032;-70
2023/05/22 02:47:44;;;;;;;8.07;6.10;;;;;;;15.68;100.00;99379.97;5071551;28;20108;-69
2023/05/22 02:50:09;;;;;;;7.45;5.32;;;;;;;15.71;100.00;99377.22;5072202;28;20121;-68
2023/05/22 02:52:35;;;;;;;9.45;5.93;;;;;;;16.18;100.00;99430.84;5054738;28;20029;-68
2023/05/22 02:55:03;;;;;;;7.78;5.60;;;;;;;16.01;100.00;99397.66;5072384;28;20033;-69
2023/05/22 02:57:28;;;;;;;11.73;6.18;;;;;;;16.18;100.00;99448.78;5071964;28;20020;-69
2023/05/22 02:59:54;;;;;;;9.73;5.78;;;;;;;15.96;100.00;99449.22;5054224;28;20028;-68
2023/05/22 03:02:19;;;;;;;10.40;5.90;;;;;;;16.13;100.00;99461.03;5071577;28;20024;-70
2023/05/22 03:04:45;;;;;;;11.55;6.28;;;;;;;16.22;100.00;99453.63;5053687;28;20025;-70
2023/05/22 03:07:11;;;;;;;12.02;5.80;;;;;;;16.26;100.00;99474.81;5072399;28;20118;-69
2023/05/22 03:09:36;;;;;;;10.88;6.40;;;;;;;15.90;100.00;99425.69;5072276;28;20021;-70
2023/05/22 03:12:03;;;;;;;9.65;6.28;;;;;;;15.98;100.00;99451.69;5069081;28;20041;-69
2023/05/22 03:14:29;;;;;;;11.18;6.35;;;;;;;15.73;100.00;99489.94;5071907;28;20081;-70
2023/05/22 03:16:55;;;;;;;11.52;6.90;;;;;;;15.66;100.00;99445.88;5071759;28;20032;-69
2023/05/22 03:19:21;;;;;;;14.20;6.45;;;;;;;15.47;100.00;99476.81;5054016;28;20047;-69
2023/05/22 03:21:48;;;;;;;13.07;7.03;;;;;;;14.91;100.00;99376.69;5053396;28;20111;-69
2023/05/22 03:24:14;;;;;;;13.55;7.40;;;;;;;15.37;100.00;99470.53;5055530;28;20051;-69
2023/05/22 03:26:40;;;;;;;14.20;6.97;;;;;;;15.01;100.00;99377.84;5051970;28;20419;-69
2023/05/22 03:29:06;;;;;;;16.98;7.03;;;;;;;15.42;100.00;99453.22;5051258;28;20025;-70
2023/05/22 03:31:32;;;;;;;15.05;6.88;;;;;;;15.85;100.00;99458.44;5063408;28;20040;-70
2023/05/22 03:33:58;;;;;;;11.30;7.03;;;;;;;15.66;100.00;99474.06;5071728;28;20035;-70
2023/05/22 03:36:24;;;;;;;8.88;5.97;;;;;;;15.95;100.00;99377.50;5071131;28;20131;-73
2023/05/22 03:38:50;;;;;;;8.98;6.60;;;;;;;16.08;100.00;99475.88;5071968;28;20039;-72
2023/05/22 03:41:16;;;;;;;11.13;6.47;;;;;;;15.56;100.00;99408.88;5071923;28;20107;-73
2023/05/22 03:43:41;;;;;;;14.20;6.20;;;;;;;15.84;100.00;99438.84;5054455;28;20060;-73
2023/05/22 03:46:07;;;;;;;11.95;6.53;;;;;;;15.90;100.00;99454.72;5069059;28;20064;-73
2023/05/22 03:48:33;;;;;;;13.88;6.35;;;;;;;16.35;100.00;99523.84;5052099;28;20081;-70
2023/05/22 03:50:59;;;;;;;12.32;6.78;;;;;;;15.89;100.00;99457.34;5071436;28;20021;-72
2023/05/22 03:53:24;;;;;;;12.00;6.60;;;;;;;16.43;100.00;99495.16;5071574;28;20029;-71
2023/05/22 03:55:49;;;;;;;12.70;7.07;;;;;;;16.43;100.00;99507.97;5053602;28;20036;-71
2023/05/22 03:58:15;;;;;;;14.02;7.50;;;;;;;16.31;100.00;99506.97;5052272;28;20510;-75
2023/05/22 04:00:42;;;;;;;10.98;7.18;;;;;;;16.83;100.00;99571.47;5071225;28;20029;-71
2023/05/22 04:03:11;;;;;;;20.48;7.65;;;;;;;16.81;100.00;99588.72;5051934;28;20050;-71
2023/05/22 04:05:38;;;;;;;14.90;8.35;;;;;;;16.61;100.00;99558.25;5042977;28;20053;-71
2023/05/22 04:08:04;;;;;;;15.93;8.52;;;;;;;16.95;100.00;99596.41;5031304;28;20041;-73
2023/05/22 04:10:30;;;;;;;12.02;8.00;;;;;;;16.79;100.00;99589.72;5030370;28;20079;-71
2023/05/22 04:12:56;;;;;;;13.73;8.10;;;;;;;16.46;100.00;99553.97;5030296;28;20480;-71
2023/05/22 04:15:22;;;;;;;19.60;8.27;;;;;;;16.84;100.00;99565.41;5031231;28;20075;-71
2023/05/22 04:17:48;;;;;;;13.95;8.18;;;;;;;17.02;100.00;99579.69;5031358;28;20025;-71
2023/05/22 04:20:14;;;;;;;13.50;8.23;;;;;;;17.20;100.00;99634.28;5031168;28;20041;-71
2023/05/22 04:22:40;;;;;;;15.75;8.32;;;;;;;17.28;100.00;99609.78;5030718;28;20033;-71
2023/05/22 04:25:06;;;;;;;16.27;7.32;;;;;;;17.45;100.00;99651.59;5016499;28;20465;-72
2023/05/22 04:27:33;;;;;;;14.50;7.47;;;;;;;17.09;100.00;99626.41;5011795;28;20041;-73
2023/05/22 04:29:59;;;;;;;11.50;7.40;;;;;;;17.48;100.00;99669.41;5011491;28;20038;-72
2023/05/22 04:32:25;;;;;;;17.02;7.75;;;;;;;17.62;100.00;99695.13;5011424;28;20030;-74
2023/05/22 04:34:51;;;;;;;15.10;7.68;;;;;;;17.44;100.00;99688.50;5010224;28;20393;-72
2023/05/22 04:37:18;;;;;;;12.50;7.15;;;;;;;17.90;100.00;99756.81;5011148;28;20099;-74
2023/05/22 04:39:45;;;;;;;12.98;7.32;;;;;;;17.61;100.00;99739.75;5011112;28;20026;-71
2023/05/22 04:42:14;;;;;;;10.75;6.32;;;;;;;17.71;100.00;99810.25;5029152;28;20049;-72
2023/05/22 04:44:41;;;;;;;16.80;7.45;;;;;;;17.95;100.00;99785.63;5031139;28;20044;-72
2023/05/22 04:47:10;;;;;;;14.45;6.65;;;;;;;17.84;100.00;99800.91;5031058;28;20087;-72
2023/05/22 04:49:45;;;;;;;12.02;6.43;;;;;;;17.69;100.00;99799.28;5031147;28;20029;-73
2023/05/22 04:52:10;;;;;;;8.65;5.72;;;;;;;18.18;100.00;99873.38;5031513;28;20044;-73
2023/05/22 04:54:42;;;;;;;12.45;5.60;;;;;;;17.81;100.00;99855.94;5029744;28;20026;-72
2023/05/22 04:57:07;;;;;;;11.85;6.47;;;;;;;17.80;100.00;99892.03;5031960;28;20032;-72
2023/05/22 04:59:39;;;;;;;11.93;6.35;;;;;;;17.29;100.00;99809.28;5034083;28;20132;-73
2023/05/22 05:02:07;;;;;;;12.10;6.90;;;;;;;17.32;100.00;99829.69;5034137;28;20103;-73
2023/05/22 05:04:32;;;;;;;12.48;7.13;;;;;;;17.87;100.00;99865.84;5034309;28;20071;-73
2023/05/22 05:06:58;;;;;;;11.73;7.10;;;;;;;17.38;100.00;99766.81;5066363;28;20044;-73
2023/05/22 05:09:24;;;;;;;13.10;6.63;;;;;;;17.53;100.00;99842.22;5074176;28;20024;-73
2023/05/22 05:11:51;;;;;;;10.23;6.70;;;;;;;17.45;100.00;99762.13;5074592;28;20537;-72
2023/05/22 05:14:16;;;;;;;15.40;7.20;;;;;;;17.96;100.00;99831.88;5074308;28;20518;-73
2023/05/22 05:16:42;;;;;;;13.15;7.85;;;;;;;18.05;100.00;99831.31;5074867;28;20025;-73
2023/05/22 05:19:08;;;;;;;12.25;7.30;;;;;;;17.31;100.00;99726.97;5074303;28;20028;-73
2023/05/22 05:21:33;;;;;;;14.48;7.43;;;;;;;17.53;100.00;99791.63;5074865;28;20039;-72
2023/05/22 05:23:59;;;;;;;13.45;8.23;;;;;;;17.72;100.00;99748.47;5074654;28;20111;-72
2023/05/22 05:26:26;;;;;;;13.98;8.18;;;;;;;18.04;100.00;99777.38;5074608;28;20059;-72
2023/05/22 05:28:51;;;;;;;20.38;11.80;;;;;;;17.80;100.00;99717.13;5056496;28;20093;-75
2023/05/22 05:31:18;;;;;;;12.65;7.50;;;;;;;17.85;100.00;99767.38;5074745;28;20051;-72
2023/05/22 05:33:43;;;;;;;16.73;8.30;;;;;;;18.20;100.00;99767.78;5056425;28;20033;-73
2023/05/22 05:36:09;;;;;;;18.17;9.48;;;;;;;17.84;100.00;99716.88;5074423;28;20064;-73
2023/05/22 05:38:34;;;;;;;15.45;8.35;;;;;;;17.84;100.00;99698.88;5074523;28;20398;-73
2023/05/22 05:41:00;;;;;;;17.73;8.00;;;;;;;18.35;100.00;99771.97;5074269;28;20040;-73
2023/05/22 05:43:25;;;;;;;14.70;7.47;;;;;;;18.61;100.00;99778.06;5074765;28;20020;-73
2023/05/22 05:45:51;;;;;;;14.40;7.85;;;;;;;18.46;100.00;99784.19;5074499;28;20035;-74
2023/05/22 05:48:16;;;;;;;10.60;6.57;;;;;;;18.16;100.00;99741.38;5074018;28;20448;-73
2023/05/22 05:50:41;;;;;;;16.20;7.03;;;;;;;18.60;100.00;99797.81;5074257;28;20078;-73
2023/05/22 05:53:07;;;;;;;11.70;7.18;;;;;;;18.41;100.00;99820.50;5055818;28;20028;-73
2023/05/22 05:55:32;;;;;;;13.25;7.28;;;;;;;18.33;100.00;99811.56;5074034;28;20040;-73
2023/05/22 05:57:58;;;;;;;17.63;7.32;;;;;;;18.58;100.00;99835.72;5073660;28;20029;-73
2023/05/22 06:00:24;;;;;;;17.75;7.85;;;;;;;18.87;100.00;99857.06;5073967;28;20469;-74
2023/05/22 06:02:49;;;;;;;15.20;7.13;;;;;;;18.71;100.00;99851.25;5074022;28;20120;-73
2023/05/22 06:05:17;;;;;;;15.88;8.00;;;;;;;18.96;100.00;99861.63;5056071;28;20032;-73
2023/05/22 06:07:43;;;;;;;15.90;8.00;;;;;;;18.99;100.00;99869.97;5074105;28;20486;-73
2023/05/22 06:10:09;;;;;;;17.83;8.63;;;;;;;18.52;100.00;99825.81;5073204;28;20039;-73
2023/05/22 06:12:36;;;;;;;14.60;8.13;;;;;;;18.89;100.00;99868.94;5073964;28;20093;-73
2023/05/22 06:15:04;;;;;;;19.63;9.10;;;;;;;18.87;100.00;99818.44;5073632;28;20078;-73
2023/05/22 06:17:29;;;;;;;18.17;8.60;;;;;;;19.28;100.00;99881.00;5073931;28;20398;-73
2023/05/22 06:19:55;;;;;;;15.82;9.13;;;;;;;18.92;100.00;99818.94;5073334;28;20036;-74
2023/05/22 06:22:20;;;;;;;17.38;8.32;;;;;;;19.19;100.00;99824.06;5055546;28;20025;-73
2023/05/22 06:24:46;;;;;;;17.10;7.85;;;;;;;18.95;100.00;99860.00;5073440;28;20559;-73
2023/05/22 06:27:11;;;;;;;13.23;7.10;;;;;;;18.96;100.00;99848.75;5073949;28;20033;-73
2023/05/22 06:29:36;;;;;;;13.52;6.80;;;;;;;19.32;100.00;99890.19;5055566;28;20108;-72
2023/05/22 06:32:02;;;;;;;9.93;5.97;;;;;;;19.47;100.00;99878.09;5073227;28;20147;-72
2023/05/22 06:34:28;;;;;;;11.13;6.40;;;;;;;19.34;100.00;99911.56;5073463;28;20055;-72
2023/05/22 06:36:53;;;;;;;11.55;5.57;;;;;;;19.11;100.00;99906.22;5074064;28;20036;-75
2023/05/22 06:39:20;;;;;;;14.07;5.97;;;;;;;19.88;100.00;99925.19;5073516;28;20033;-72
2023/05/22 06:41:45;;;;;;;11.52;5.60;;;;;;;19.83;100.00;99898.84;5055417;28;20025;-73
2023/05/22 06:44:11;;;;;;;12.80;5.93;;;;;;;19.77;100.00;99933.63;5073056;28;20035;-73
2023/05/22 06:46:37;;;;;;;13.45;7.65;;;;;;;20.91;100.00;100016.22;5073167;28;20060;-73
2023/05/22 06:49:03;;;;;;;14.15;9.98;;;;;;;20.31;100.00;100036.75;5072657;28;20068;-73
2023/05/22 06:51:28;;;;;;;24.33;13.93;;;;;;;20.91;100.00;100055.00;5073053;28;20379;-73
2023/05/22 06:53:54;;;;;;;46.55;38.00;;;;;;;20.92;100.00;100060.06;5055606;28;20562;-75
2023/05/22 06:56:19;;;;;;;17.98;10.90;;;;;;;20.65;100.00;100087.78;5073097;28;20490;-73
2023/05/22 06:58:45;;;;;;;19.95;12.45;;;;;;;20.23;100.00;100112.13;5072812;28;20078;-73
2023/05/22 07:01:10;;;;;;;22.73;10.93;;;;;;;21.23;100.00;100165.69;5073097;28;20056;-73
2023/05/22 07:03:36;;;;;;;17.15;9.57;;;;;;;21.12;100.00;100195.75;5072887;28;20056;-74
2023/05/22 07:06:02;;;;;;;11.95;7.18;;;;;;;20.94;100.00;100197.81;5053993;28;20052;-72
2023/05/22 07:08:27;;;;;;;11.85;6.40;;;;;;;21.04;100.00;100226.47;5072455;28;20033;-72
2023/05/22 07:10:53;;;;;;;12.73;7.28;;;;;;;20.77;100.00;100226.53;5072827;28;20025;-73
2023/05/22 07:13:18;;;;;;;11.93;6.72;;;;;;;20.56;100.00;100277.84;5072927;28;20036;-74
2023/05/22 07:15:45;;;;;;;13.45;5.60;;;;;;;21.47;100.00;100308.84;5054768;28;20106;-73
2023/05/22 07:18:11;;;;;;;15.10;6.78;;;;;;;21.78;100.00;100358.56;5072243;28;20028;-73
2023/05/22 07:20:36;;;;;;;13.23;6.72;;;;;;;21.80;100.00;100411.91;5071650;28;20021;-73
2023/05/22 07:23:02;;;;;;;10.52;5.55;;;;;;;22.56;100.00;100578.56;5054373;28;20128;-73
2023/05/22 07:25:28;;;;;;;13.88;6.03;;;;;;;22.51;100.00;100699.06;5072256;28;20055;-73
2023/05/22 07:27:54;;;;;;;7.80;5.57;;;;;;;22.87;100.00;100857.47;5072570;28;20077;-73
2023/05/22 07:30:20;;;;;;;11.43;5.85;;;;;;;22.76;100.00;101137.44;5072163;28;20126;-73
2023/05/22 07:32:47;;;;;;;11.05;5.70;;;;;;;23.15;100.00;101475.03;5072357;28;20107;-73
2023/05/22 07:35:12;;;;;;;11.18;5.57;;;;;;;23.43;100.00;101848.28;5071978;28;20032;-73
2023/05/22 07:37:38;;;;;;;12.30;5.32;;;;;;;22.48;100.00;102078.56;5071781;28;20036;-73
2023/05/22 07:40:06;;;;;;;9.35;5.85;;;;;;;23.09;100.00;102343.16;5054256;28;20127;-73
2023/05/22 07:42:31;;;;;;;13.70;4.95;;;;;;;23.46;100.00;103560.91;5070918;28;20646;-73
2023/05/22 07:44:57;;;;;;;10.15;4.32;;;;;;;22.89;100.00;103798.47;5071766;28;20119;-73
2023/05/22 07:47:22;;;;;;;8.80;4.40;;;;;;;23.01;100.00;103985.22;5071438;28;20139;-73
2023/05/22 07:49:47;;;;;;;9.60;4.00;;;;;;;23.11;100.00;104327.91;5071856;28;20032;-73
2023/05/22 07:52:13;;;;;;;9.65;4.20;;;;;;;23.49;100.00;104558.84;5071835;28;20032;-74
2023/05/22 07:54:38;;;;;;;11.15;4.50;;;;;;;22.98;100.00;104608.50;5071657;28;20471;-72
2023/05/22 07:57:04;;;;;;;11.20;4.40;;;;;;;22.91;100.00;104773.03;5071647;28;20038;-73
2023/05/22 07:59:29;;;;;;;9.77;4.57;;;;;;;22.97;100.00;104992.06;5071916;28;20032;-73
2023/05/22 08:01:55;;;;;;;11.98;4.63;;;;;;;22.92;100.00;104987.72;5071837;28;20020;-73
2023/05/22 08:04:20;;;;;;;9.60;4.38;;;;;;;23.19;100.00;104966.97;5071659;28;20558;-74
2023/05/22 08:06:46;;;;;;;8.75;4.50;;;;;;;23.00;100.00;104892.47;5053324;28;20040;-73
2023/05/22 08:09:12;;;;;;;9.07;4.40;;;;;;;23.79;100.00;104920.03;5053434;28;20037;-73
2023/05/22 08:11:40;;;;;;;7.82;3.90;;;;;;;23.18;100.00;104532.19;5053684;28;20651;-73
2023/05/22 08:14:06;;;;;;;8.77;3.88;;;;;;;22.83;100.00;104408.69;5071705;28;20111;-73
2023/05/22 08:16:32;;;;;;;8.60;4.20;;;;;;;22.84;100.00;104057.31;5053331;28;20123;-72
2023/05/22 08:18:57;;;;;;;8.13;4.28;;;;;;;22.86;100.00;103725.81;5053564;28;20113;-74
2023/05/22 08:21:23;;;;;;;7.70;4.03;;;;;;;23.45;100.00;103746.31;5053992;28;20036;-73
2023/05/22 08:23:48;;;;;;;7.53;4.10;;;;;;;23.02;100.00;103701.25;5071120;28;20476;-73
2023/05/22 08:26:14;;;;;;;6.65;3.70;;;;;;;22.60;100.00;103663.19;5053676;28;20024;-73
2023/05/22 08:28:42;;;;;;;9.40;3.90;;;;;;;22.69;100.00;103614.56;5053746;28;20039;-73
2023/05/22 08:31:11;;;;;;;11.27;4.15;;;;;;;23.37;100.00;103704.03;5071518;28;20091;-73
2023/05/22 08:33:37;;;;;;;6.80;3.63;;;;;;;22.70;100.00;103620.59;5063806;28;20400;-73
2023/05/22 08:36:03;;;;;;;7.75;3.70;;;;;;;22.79;100.00;103600.50;5071381;28;20043;-73
2023/05/22 08:38:28;;;;;;;6.93;3.90;;;;;;;23.27;100.00;103679.94;5071030;28;20028;-73
2023/05/22 08:40:56;;;;;;;6.55;3.67;;;;;;;23.03;100.00;103688.28;5071059;28;20036;-74
2023/05/22 08:43:22;;;;;;;7.50;4.13;;;;;;;24.03;100.00;103883.72;5053303;28;20127;-73
2023/05/22 08:45:59;;;;;;;6.60;3.65;;;;;;;24.39;100.00;103900.28;5071040;28;20111;-73
2023/05/22 08:48:29;;;;;;;7.97;3.75;;;;;;;24.85;100.00;105060.13;5070690;28;20093;-72
2023/05/22 08:50:57;;;;;;;8.82;3.72;;;;;;;25.58;100.00;104502.28;5053442;28;20025;-73
2023/05/22 08:53:24;;;;;;;14.10;4.03;;;;;;;25.43;100.00;104143.59;5071002;28;20027;-73
2023/05/22 08:55:53;;;;;;;7.50;4.00;;;;;;;25.31;100.00;103851.94;5052772;28;20123;-73
2023/05/22 08:58:20;;;;;;;6.47;3.78;;;;;;;25.82;100.00;103635.72;5070887;28;20031;-73
2023/05/22 09:00:46;;;;;;;11.73;3.67;;;;;;;25.12;100.00;103368.72;5071064;28;20037;-73
2023/05/22 09:03:13;;;;;;;6.55;3.45;;;;;;;24.97;100.00;103244.22;5070892;28;20034;-73
2023/05/22 09:05:40;;;;;;;8.13;3.53;;;;;;;23.83;100.00;103001.88;5070764;28;20127;-72
2023/05/22 09:08:09;;;;;;;6.75;3.55;;;;;;;24.25;100.00;102900.69;5070942;28;20024;-73
2023/05/22 09:10:35;;;;;;;12.45;3.53;;;;;;;24.58;100.00;102758.88;5070678;28;20032;-73
2023/05/22 09:13:06;;;;;;;10.85;4.07;;;;;;;24.46;100.00;102619.72;5071042;28;20025;-73
2023/05/22 09:15:32;;;;;;;7.95;3.60;;;;;;;25.39;100.00;102583.31;5071160;28;20028;-75
2023/05/22 09:17:58;;;;;;;5.55;3.40;;;;;;;25.42;100.00;102371.28;5054004;28;20082;-73
2023/05/22 09:20:24;;;;;;;7.68;3.67;;;;;;;25.48;100.00;102207.63;5070814;28;20032;-74
2023/05/22 09:22:49;;;;;;;6.50;3.80;;;;;;;24.45;100.00;102032.66;5052424;28;20086;-74
2023/05/22 09:25:19;;;;;;;7.88;4.18;;;;;;;25.69;100.00;102172.56;4716760;28;10000600;-73
2023/05/22 09:27:46;;;;;;;7.85;3.60;;;;;;;25.75;100.00;102210.50;5069085;28;20051;-73
2023/05/22 09:30:21;;;;;;;7.28;3.60;;;;;;;25.12;100.00;102269.47;5068926;28;20116;-74
2023/05/22 09:32:49;;;;;;;5.43;3.70;;;;;;;24.40;100.00;102260.97;5068438;28;20027;-74
2023/05/22 09:35:15;;;;;;;7.00;3.47;;;;;;;25.83;100.00;102286.50;5050275;28;20060;-73
2023/05/22 09:37:40;;;;;;;7.32;4.03;;;;;;;26.31;100.00;102183.81;5068263;28;20151;-75
2023/05/22 09:40:09;;;;;;;10.00;3.58;;;;;;;26.08;100.00;102057.34;5068565;28;20021;-73
2023/05/22 09:42:35;;;;;;;8.38;3.38;;;;;;;26.62;100.00;101873.06;5068396;28;20036;-73
2023/05/22 09:45:02;;;;;;;6.78;3.85;;;;;;;26.48;100.00;101667.75;5070965;28;20032;-74
2023/05/22 09:47:28;;;;;;;7.47;3.50;;;;;;;26.25;100.00;101401.53;5054908;28;20024;-70
2023/05/22 09:49:56;;;;;;;7.18;3.53;;;;;;;26.77;100.00;101222.00;5073923;28;20032;-69
2023/05/22 09:52:23;;;;;;;6.72;3.22;;;;;;;26.12;100.00;100973.88;5074051;28;20115;-73
2023/05/22 09:54:54;;;;;;;10.18;5.40;;;;;;;25.62;100.00;100787.47;5056265;28;20036;-74
2023/05/22 09:57:22;;;;;;;7.13;3.40;;;;;;;25.69;100.00;100613.25;5056373;28;20033;-74
2023/05/22 09:59:53;;;;;;;8.55;4.30;;;;;;;26.42;100.00;100501.13;5074267;28;20028;-75
2023/05/22 10:02:21;;;;;;;8.95;3.67;;;;;;;25.07;100.00;100326.66;5056906;28;20028;-74
2023/05/22 10:04:50;;;;;;;7.07;3.95;;;;;;;25.46;100.00;100273.88;5056855;28;20392;-74
2023/05/22 10:07:21;;;;;;;7.57;3.45;;;;;;;25.95;100.00;100183.66;5056281;28;20199;-74
2023/05/22 10:09:51;;;;;;;;;;;;;;;26.91;100.00;100133.09;5074144;28;20028;-74
2023/05/22 10:12:20;;;;;;;8.23;3.90;;;;;;;26.46;100.00;100070.28;5056024;28;19955;-73
2023/05/22 10:14:46;;;;;;;11.98;3.90;;;;;;;26.42;100.00;99959.38;5073861;28;20078;-74
2023/05/22 10:17:15;;;;;;;7.43;3.53;;;;;;;25.59;100.00;99958.50;5073468;28;20024;-73
2023/05/22 10:19:41;;;;;;;6.82;3.05;;;;;;;25.95;100.00;99929.06;5073727;28;20028;-73
2023/05/22 10:22:07;;;;;;;4.55;3.30;;;;;;;26.24;100.00;99889.88;5073030;28;20028;-73
2023/05/22 10:24:33;;;;;;;6.00;3.38;;;;;;;26.80;100.00;99934.09;5073649;28;20025;-74
2023/05/22 10:26:59;;;;;;;5.53;3.35;;;;;;;27.66;100.00;99895.03;5073460;28;20036;-74
2023/05/22 10:29:37;;;;;;;5.07;3.13;;;;;;;27.47;100.00;99900.47;5055600;28;20036;-74
2023/05/22 10:32:12;;;;;;;6.85;3.53;;;;;;;27.36;100.00;99877.19;5073231;28;20050;-74
2023/05/22 10:34:58;;;;;;;11.50;3.50;;;;;;;26.72;100.00;99864.34;5073788;28;20028;-75
2023/05/22 10:37:42;;;;;;;6.60;3.60;;;;;;;27.09;100.00;99828.50;5055579;28;20033;-74
2023/05/22 10:40:14;;;;;;;7.75;4.10;;;;;;;26.36;100.00;99880.91;5073800;28;20121;-75
2023/05/22 10:42:39;;;;;;;6.10;3.55;;;;;;;25.97;100.00;99840.31;5074489;28;20024;-75
2023/05/22 10:45:09;;;;;;;9.52;4.03;;;;;;;26.21;100.00;99820.59;5055137;28;20035;-75
2023/05/22 10:47:35;;;;;;;6.47;4.03;;;;;;;27.14;100.00;99859.34;5073110;28;20119;-74
2023/05/22 10:50:09;;;;;;;8.23;4.10;;;;;;;26.59;100.00;99879.53;5073002;28;20064;-74
2023/05/22 10:52:36;;;;;;;8.23;3.67;;;;;;;25.58;100.00;99824.81;5073191;28;20144;-74
2023/05/22 10:55:08;;;;;;;6.57;3.97;;;;;;;25.78;100.00;99911.56;5073487;28;20078;-73
2023/05/22 10:57:38;;;;;;;8.48;3.80;;;;;;;24.37;100.00;99893.91;5073230;28;20033;-74
2023/05/22 11:00:12;;;;;;;9.38;4.30;;;;;;;24.56;100.00;99938.19;5055261;28;20042;-74
2023/05/22 11:02:42;;;;;;;9.52;4.32;;;;;;;23.05;100.00;100135.88;5072802;28;20060;-73
2023/05/22 11:05:33;;;;;;;8.20;4.63;;;;;;;22.93;100.00;100331.34;5072451;28;20064;-73
2023/05/22 11:08:24;;;;;;;11.00;5.15;;;;;;;22.55;100.00;100557.94;5062712;28;20063;-73
2023/05/22 11:10:59;;;;;;;15.48;6.13;;;;;;;20.81;100.00;100852.75;5061808;28;20056;-73
2023/05/22 11:13:26;;;;;;;11.85;5.60;;;;;;;20.72;100.00;101069.47;5054746;28;20032;-73
2023/05/22 11:15:54;;;;;;;10.05;5.30;;;;;;;20.66;100.00;101317.09;5054508;28;20032;-73
2023/05/22 11:18:19;;;;;;;7.07;5.60;;;;;;;20.54;100.00;101829.50;5072267;28;20029;-73